Time;durP1;ratioP1;P1;durP2;ratioP2;P2;SDS_P1;SDS_P2;PMS_P1;PMS_P2;Temp;Humidity;BMP_temperature;BMP_pressure;BME280_temperature;BME280_humidity;BME280_pressure;Samples;Min_cycle;Max_cycle;Signal;HPM_P1;HPM_P2
2021/01/06 00:01:12;;;;;;;46.35;18.27;;;;;;;1.00;73.80;95631.06;5051597;28;20049;-69
2021/01/06 00:03:38;;;;;;;44.83;18.90;;;;;;;1.00;73.93;95637.25;5052947;28;20543;-70
2021/01/06 00:06:08;;;;;;;53.97;18.75;;;;;;;1.05;73.68;95633.75;5051631;28;20052;-69
2021/01/06 00:08:35;;;;;;;52.45;19.92;;;;;;;0.94;73.47;95626.78;5052432;28;20049;-70
2021/01/06 00:11:02;;;;;;;60.45;20.08;;;;;;;0.82;74.07;95645.06;5051860;28;20040;-70
2021/01/06 00:13:28;;;;;;;55.53;19.38;;;;;;;0.81;74.42;95643.47;5054842;28;20044;-70
2021/01/06 00:15:55;;;;;;;65.85;21.38;;;;;;;0.79;74.59;95641.06;5052859;28;20499;-72
2021/01/06 00:18:23;;;;;;;58.42;20.63;;;;;;;0.76;74.36;95641.59;5051431;28;20052;-70
2021/01/06 00:20:50;;;;;;;51.97;18.70;;;;;;;0.80;74.46;95636.50;5052579;28;20130;-70
2021/01/06 00:23:17;;;;;;;53.58;20.00;;;;;;;0.83;74.62;95633.28;5050976;28;20060;-69
2021/01/06 00:25:43;;;;;;;52.80;21.15;;;;;;;0.78;74.15;95629.56;5052569;28;20106;-71
2021/01/06 00:28:11;;;;;;;57.35;20.90;;;;;;;0.73;74.43;95626.91;5050953;28;20110;-72
2021/01/06 00:30:40;;;;;;;59.10;21.13;;;;;;;0.77;74.92;95637.84;5052435;28;20052;-70
2021/01/06 00:33:10;;;;;;;51.92;19.55;;;;;;;0.74;74.96;95636.53;5051040;28;20432;-70
2021/01/06 00:35:36;;;;;;;60.55;20.45;;;;;;;0.72;74.65;95632.50;5051875;28;20566;-69
2021/01/06 00:38:02;;;;;;;59.80;20.73;;;;;;;0.62;74.89;95630.66;5051401;28;20091;-71
2021/01/06 00:40:32;;;;;;;53.22;19.65;;;;;;;0.69;75.13;95628.50;5051431;28;20048;-71
2021/01/06 00:42:59;;;;;;;60.00;20.25;;;;;;;0.76;75.08;95622.84;5054709;28;20041;-72
2021/01/06 00:45:26;;;;;;;55.67;20.48;;;;;;;0.78;74.99;95624.19;5050533;28;20049;-72
2021/01/06 00:47:52;;;;;;;54.70;20.48;;;;;;;0.85;74.84;95628.47;5052264;28;20045;-71
2021/01/06 00:50:20;;;;;;;55.65;19.73;;;;;;;0.77;75.28;95617.22;5050625;28;20096;-70
2021/01/06 00:52:46;;;;;;;55.40;19.23;;;;;;;0.72;75.77;95625.25;5052102;28;20041;-71
2021/01/06 00:55:13;;;;;;;69.28;20.63;;;;;;;0.68;76.13;95618.88;5050620;28;20185;-71
2021/01/06 00:57:39;;;;;;;65.55;21.45;;;;;;;0.72;76.11;95622.59;5051569;28;20439;-71
2021/01/06 01:00:08;;;;;;;61.45;20.90;;;;;;;0.71;76.06;95615.63;5050782;28;20056;-71
2021/01/06 01:02:35;;;;;;;63.85;20.73;;;;;;;0.55;76.11;95613.28;5051130;28;20520;-71
2021/01/06 01:05:01;;;;;;;63.30;21.17;;;;;;;0.55;76.33;95613.28;5051629;28;20064;-71
2021/01/06 01:07:27;;;;;;;67.18;21.80;;;;;;;0.42;77.28;95614.66;5050557;28;20048;-71
2021/01/06 01:09:54;;;;;;;70.78;22.42;;;;;;;0.35;77.64;95614.13;5051665;28;20049;-71
2021/01/06 01:12:22;;;;;;;64.90;23.05;;;;;;;0.41;77.77;95618.38;5052583;28;20110;-71
2021/01/06 01:14:49;;;;;;;65.78;21.42;;;;;;;0.40;77.91;95612.22;5051800;28;20074;-71
2021/01/06 01:17:15;;;;;;;60.35;21.27;;;;;;;0.44;77.76;95623.22;5049875;28;20098;-71
2021/01/06 01:19:40;;;;;;;61.08;20.73;;;;;;;0.36;77.92;95615.72;5051345;28;20044;-71
2021/01/06 01:22:07;;;;;;;57.15;21.52;;;;;;;0.32;78.37;95609.31;5050267;28;20444;-71
2021/01/06 01:24:34;;;;;;;62.05;21.15;;;;;;;0.31;78.77;95613.06;5050403;28;20045;-71
2021/01/06 01:27:00;;;;;;;63.90;21.27;;;;;;;0.35;78.95;95601.53;5049761;28;20048;-71
2021/01/06 01:29:26;;;;;;;67.13;22.45;;;;;;;0.33;79.17;95602.88;5048712;28;20091;-71
2021/01/06 01:31:52;;;;;;;70.78;21.38;;;;;;;0.27;79.51;95606.66;5051190;28;20132;-71
2021/01/06 01:34:18;;;;;;;80.53;22.15;;;;;;;0.28;79.76;95602.91;5049768;28;20044;-71
2021/01/06 01:36:48;;;;;;;87.22;23.98;;;;;;;0.27;80.01;95601.31;5051319;28;20045;-71
2021/01/06 01:39:14;;;;;;;76.30;22.48;;;;;;;0.33;79.89;95600.22;5049744;28;20049;-71
2021/01/06 01:41:41;;;;;;;75.95;24.00;;;;;;;0.36;79.82;95603.13;5048392;28;20447;-71
2021/01/06 01:44:07;;;;;;;73.57;23.15;;;;;;;0.41;79.94;95607.69;5049579;28;20045;-71
2021/01/06 01:47:00;;;;;;;79.80;24.63;;;;;;;0.44;79.77;95596.44;5050380;28;20191;-71
2021/01/06 01:49:29;;;;;;;72.55;21.20;;;;;;;0.40;80.20;95598.03;5053910;28;20041;-71
2021/01/06 01:52:01;;;;;;;76.25;22.80;;;;;;;0.38;79.90;95598.31;5050055;28;20460;-71
2021/01/06 01:54:29;;;;;;;74.80;23.52;;;;;;;0.36;79.87;95594.28;5050677;28;20558;-71
2021/01/06 01:57:02;;;;;;;72.57;24.80;;;;;;;0.32;79.92;95594.06;5049756;28;20431;-71
2021/01/06 01:59:34;;;;;;;80.93;25.15;;;;;;;0.29;80.23;95599.13;5050552;28;20680;-71
2021/01/06 02:02:06;;;;;;;82.25;24.40;;;;;;;0.21;80.39;95603.97;5049955;28;20049;-71
2021/01/06 02:04:38;;;;;;;90.13;25.08;;;;;;;0.19;80.61;95595.41;5050291;28;20045;-71
2021/01/06 02:07:09;;;;;;;86.95;25.05;;;;;;;0.21;80.69;95595.94;5050073;28;20400;-71
2021/01/06 02:09:46;;;;;;;82.82;27.52;;;;;;;0.20;80.68;95593.53;5049651;28;20048;-71
2021/01/06 02:12:16;;;;;;;90.43;26.08;;;;;;;0.16;80.88;95587.94;5050429;28;20496;-71
2021/01/06 02:14:51;;;;;;;92.15;25.88;;;;;;;0.16;81.05;95589.81;5049796;28;20045;-71
2021/01/06 02:17:17;;;;;;;92.93;25.92;;;;;;;0.17;81.18;95583.38;5050132;28;20045;-70
2021/01/06 02:19:45;;;;;;;101.88;26.40;;;;;;;0.10;81.43;95580.94;5068082;28;20064;-71
2021/01/06 02:22:15;;;;;;;105.35;27.08;;;;;;;0.09;81.74;95584.72;5069557;28;20406;-71
2021/01/06 02:24:43;;;;;;;97.82;29.90;;;;;;;0.06;81.88;95585.25;5070084;28;20504;-71
2021/01/06 02:27:10;;;;;;;104.38;27.50;;;;;;;0.10;81.92;95575.59;5070198;28;20041;-72
2021/01/06 02:29:37;;;;;;;96.78;27.42;;;;;;;0.09;81.89;95579.34;5070816;28;20569;-72
2021/01/06 02:32:04;;;;;;;96.25;26.95;;;;;;;0.10;81.91;95570.25;5068893;28;20045;-71
2021/01/06 02:34:31;;;;;;;95.38;25.90;;;;;;;0.13;81.71;95569.72;5070733;28;20051;-71
2021/01/06 02:36:57;;;;;;;91.63;26.42;;;;;;;0.11;81.83;95566.53;5069351;28;20044;-71
2021/01/06 02:39:24;;;;;;;103.72;26.58;;;;;;;0.08;81.92;95569.72;5073704;28;20395;-71
2021/01/06 02:41:51;;;;;;;96.88;25.42;;;;;;;0.06;81.78;95569.22;5073662;28;20041;-71
2021/01/06 02:44:17;;;;;;;97.18;27.58;;;;;;;0.09;81.83;95565.97;5073743;28;20048;-71
2021/01/06 02:46:44;;;;;;;103.32;25.30;;;;;;;0.14;81.80;95565.16;5073983;28;20458;-71
2021/01/06 02:49:13;;;;;;;99.03;26.55;;;;;;;0.14;81.83;95563.28;5072313;28;20500;-71
2021/01/06 02:51:44;;;;;;;101.78;27.92;;;;;;;0.10;81.77;95574.81;5074105;28;20499;-71
2021/01/06 02:54:15;;;;;;;98.82;26.13;;;;;;;0.10;81.81;95575.59;5072727;28;20376;-71
2021/01/06 02:56:43;;;;;;;100.55;25.45;;;;;;;0.08;81.78;95567.06;5074427;28;20059;-71
2021/01/06 02:59:12;;;;;;;93.68;26.60;;;;;;;0.02;82.00;95557.44;5072681;28;20051;-71
2021/01/06 03:01:42;;;;;;;87.38;25.00;;;;;;;0.07;82.08;95554.75;5074198;28;20053;-71
2021/01/06 03:04:11;;;;;;;85.57;24.48;;;;;;;0.10;81.85;95556.84;5072916;28;20041;-71
2021/01/06 03:06:42;;;;;;;78.97;22.88;;;;;;;0.14;81.85;95557.94;5073744;28;20040;-71
2021/01/06 03:09:22;;;;;;;79.20;23.83;;;;;;;0.13;81.83;95559.00;5073119;28;20060;-71
2021/01/06 03:11:49;;;;;;;83.55;24.60;;;;;;;0.15;81.71;95562.22;5073139;28;20060;-71
2021/01/06 03:14:15;;;;;;;86.32;24.30;;;;;;;0.14;81.69;95563.28;5073428;28;20454;-71
2021/01/06 03:16:41;;;;;;;87.90;23.55;;;;;;;0.04;81.88;95563.31;5072763;28;20051;-71
2021/01/06 03:19:09;;;;;;;76.63;23.02;;;;;;;0.11;81.79;95555.00;5062712;28;20049;-71
2021/01/06 03:21:39;;;;;;;78.03;23.23;;;;;;;0.14;81.62;95554.44;5052868;28;20052;-71
2021/01/06 03:24:08;;;;;;;83.65;22.85;;;;;;;0.15;81.63;95562.22;5053191;28;20060;-71
2021/01/06 03:26:36;;;;;;;84.97;22.90;;;;;;;0.18;81.69;95553.66;5052889;28;20416;-71
2021/01/06 03:29:04;;;;;;;84.43;24.35;;;;;;;0.17;81.53;95552.03;5052781;28;20044;-71
2021/01/06 03:31:37;;;;;;;81.32;23.48;;;;;;;0.13;81.65;95548.31;5053357;28;20037;-71
2021/01/06 03:34:07;;;;;;;81.22;22.88;;;;;;;0.14;81.50;95555.25;5052354;28;20048;-71
2021/01/06 03:36:40;;;;;;;76.43;22.55;;;;;;;0.17;81.64;95554.72;5053628;28;20049;-71
2021/01/06 03:39:11;;;;;;;81.28;24.42;;;;;;;0.20;81.62;95553.38;5051932;28;20049;-71
2021/01/06 03:41:37;;;;;;;81.78;22.73;;;;;;;0.18;81.51;95556.31;5053587;28;20393;-71
2021/01/06 03:44:07;;;;;;;79.82;23.60;;;;;;;0.20;81.50;95556.03;5052007;28;20416;-71
2021/01/06 03:46:39;;;;;;;66.82;21.98;;;;;;;0.19;81.38;95557.13;5053026;28;20079;-71
2021/01/06 03:49:12;;;;;;;72.00;23.10;;;;;;;0.13;81.52;95555.53;5055209;28;20061;-71
2021/01/06 03:51:40;;;;;;;;;;;;;;;0.08;81.40;95550.19;5052960;28;20053;-71
2021/01/06 03:54:21;;;;;;;77.28;23.02;;;;;;;0.06;81.61;95547.78;5052731;28;20269;-71
2021/01/06 03:56:49;;;;;;;85.07;25.75;;;;;;;0.07;81.59;95538.69;5051792;28;20049;-71
2021/01/06 03:59:20;;;;;;;79.47;23.33;;;;;;;0.00;81.78;95538.16;5052760;28;20052;-71
2021/01/06 04:01:55;;;;;;;85.15;26.20;;;;;;;-0.13;82.37;95538.72;5052254;28;20052;-70
2021/01/06 04:04:25;;;;;;;75.10;22.90;;;;;;;-0.06;82.35;95531.19;5052188;28;21294;-71
2021/01/06 04:06:55;;;;;;;80.63;24.33;;;;;;;-0.07;82.35;95532.28;5052579;28;20053;-70
2021/01/06 04:09:29;;;;;;;70.78;22.40;;;;;;;-0.06;82.39;95528.53;5051692;28;20049;-70
2021/01/06 04:12:04;;;;;;;71.78;21.98;;;;;;;-0.12;82.39;95532.28;5052787;28;20106;-71
2021/01/06 04:14:31;;;;;;;77.43;22.30;;;;;;;-0.14;82.58;95527.22;5051477;28;20041;-71
2021/01/06 04:17:03;;;;;;;83.55;23.83;;;;;;;-0.19;82.73;95523.75;5052931;28;20076;-71
2021/01/06 04:19:29;;;;;;;81.90;22.90;;;;;;;-0.20;82.77;95522.94;5067569;28;20404;-71
2021/01/06 04:21:55;;;;;;;89.75;25.88;;;;;;;-0.31;83.12;95521.34;5072599;28;20131;-71
2021/01/06 04:24:21;;;;;;;81.45;23.30;;;;;;;-0.27;83.14;95525.88;5071537;28;20135;-71
2021/01/06 04:26:47;;;;;;;81.45;23.27;;;;;;;-0.25;83.18;95524.84;5072171;28;20097;-71
2021/01/06 04:29:14;;;;;;;75.00;23.33;;;;;;;-0.17;83.02;95518.91;5071656;28;20052;-70
2021/01/06 04:31:40;;;;;;;80.93;22.95;;;;;;;-0.22;83.13;95524.28;5071841;28;20041;-71
2021/01/06 04:34:06;;;;;;;73.90;21.42;;;;;;;-0.21;83.20;95513.28;5072030;28;20041;-70
2021/01/06 04:36:33;;;;;;;81.10;24.02;;;;;;;-0.14;83.02;95521.06;5071637;28;20048;-71
2021/01/06 04:39:05;;;;;;;81.88;22.95;;;;;;;-0.21;83.07;95520.53;5072572;28;20523;-71
2021/01/06 04:41:44;;;;;;;76.80;23.13;;;;;;;-0.42;83.46;95523.22;5071401;28;20067;-70
2021/01/06 04:44:34;;;;;;;81.53;23.17;;;;;;;-0.28;83.58;95523.47;5071661;28;20040;-71
2021/01/06 04:47:21;;;;;;;87.15;23.67;;;;;;;-0.31;83.38;95516.81;5071924;28;20407;-71
2021/01/06 04:49:58;;;;;;;80.35;23.95;;;;;;;-0.25;83.65;95524.84;5049436;28;20048;-71
2021/01/06 04:52:38;;;;;;;76.80;23.33;;;;;;;-0.36;83.53;95519.50;5051893;28;20064;-71
2021/01/06 04:55:17;;;;;;;86.65;24.58;;;;;;;-0.31;83.44;95522.16;5050768;28;20052;-71
2021/01/06 04:57:53;;;;;;;79.82;24.65;;;;;;;-0.35;83.53;95518.41;5051750;28;20041;-72
2021/01/06 05:00:34;;;;;;;73.28;22.15;;;;;;;-0.33;83.54;95513.59;5050006;28;20045;-71
2021/01/06 05:03:20;;;;;;;85.95;24.85;;;;;;;-0.30;83.20;95517.59;5050988;28;20554;-71
2021/01/06 05:05:55;;;;;;;79.63;24.38;;;;;;;-0.30;83.15;95526.44;5052009;28;20107;-71
2021/01/06 05:08:27;;;;;;;89.32;26.50;;;;;;;-0.43;83.48;95518.94;5050237;28;20052;-70
2021/01/06 05:11:01;;;;;;;87.60;26.33;;;;;;;-0.43;83.48;95513.59;5051485;28;20064;-71
2021/01/06 05:13:34;;;;;;;84.90;25.30;;;;;;;-0.41;83.80;95522.16;5050699;28;20037;-71
2021/01/06 05:16:04;;;;;;;80.05;24.13;;;;;;;-0.36;83.46;95514.13;5050979;28;20076;-71
2021/01/06 05:18:31;;;;;;;90.03;24.25;;;;;;;-0.27;83.24;95512.50;5054826;28;20037;-71
2021/01/06 05:20:57;;;;;;;86.40;25.42;;;;;;;-0.36;83.06;95516.81;5050476;28;20041;-71
2021/01/06 05:23:27;;;;;;;93.05;26.00;;;;;;;-0.44;83.44;95512.00;5051099;28;20045;-71
2021/01/06 05:25:54;;;;;;;101.20;25.95;;;;;;;-0.46;83.64;95521.38;5050275;28;20044;-71
2021/01/06 05:28:22;;;;;;;91.35;25.02;;;;;;;-0.38;83.48;95521.63;5050985;28;20048;-71
2021/01/06 05:30:53;;;;;;;95.90;26.55;;;;;;;-0.45;83.50;95521.09;5050635;28;20524;-71
2021/01/06 05:33:23;;;;;;;99.90;27.35;;;;;;;-0.41;83.42;95519.50;5050478;28;20071;-71
2021/01/06 05:35:49;;;;;;;82.78;26.80;;;;;;;-0.34;83.25;95528.03;5050981;28;20056;-71
2021/01/06 05:38:16;;;;;;;84.68;25.88;;;;;;;-0.40;82.89;95521.09;5050066;28;20041;-71
2021/01/06 05:40:43;;;;;;;82.93;24.45;;;;;;;-0.41;83.16;95522.16;5051181;28;20041;-71
2021/01/06 05:43:22;;;;;;;93.15;26.92;;;;;;;-0.48;83.48;95526.16;5049692;28;20045;-71
2021/01/06 05:45:53;;;;;;;85.20;25.85;;;;;;;-0.47;83.32;95523.25;5051339;28;20052;-71
2021/01/06 05:48:21;;;;;;;90.60;25.60;;;;;;;-0.44;83.17;95522.69;5054352;28;20036;-72
2021/01/06 05:50:59;;;;;;;90.13;27.00;;;;;;;-0.55;83.39;95521.09;5071025;28;20045;-71
2021/01/06 05:53:33;;;;;;;88.43;27.10;;;;;;;-0.48;83.38;95524.28;5070203;28;20047;-71
2021/01/06 05:56:04;;;;;;;92.18;27.55;;;;;;;-0.59;83.71;95526.16;5071146;28;20048;-71
2021/01/06 05:58:36;;;;;;;96.05;28.95;;;;;;;-0.57;83.72;95526.72;5070978;28;20044;-72
2021/01/06 06:01:13;;;;;;;81.57;26.42;;;;;;;-0.61;83.77;95527.53;5069417;28;20090;-73
2021/01/06 06:04:05;;;;;;;91.32;27.33;;;;;;;-0.58;83.73;95533.13;5071102;28;20496;-71
2021/01/06 06:06:51;;;;;;;91.88;25.63;;;;;;;-0.57;83.80;95529.41;5068199;28;20593;-71
2021/01/06 06:09:32;;;;;;;86.65;26.33;;;;;;;-0.54;83.79;95533.38;5069507;28;20041;-71
2021/01/06 06:12:31;;;;;;;93.18;26.15;;;;;;;-0.54;83.73;95534.19;5070590;28;20071;-71
2021/01/06 06:15:16;;;;;;;87.38;26.70;;;;;;;-0.51;83.34;95532.88;5033031;28;20051;-71
2021/01/06 06:18:03;;;;;;;95.32;28.17;;;;;;;-0.51;83.45;95529.41;5069997;28;20048;-71
2021/01/06 06:20:40;;;;;;;92.05;27.13;;;;;;;-0.48;83.23;95532.31;5042383;28;20041;-71
2021/01/06 06:23:28;;;;;;;92.10;28.40;;;;;;;-0.62;83.19;95536.63;5049123;28;20048;-71
2021/01/06 06:26:04;;;;;;;107.22;28.95;;;;;;;-0.71;83.70;95538.22;5050010;28;20060;-71
2021/01/06 06:28:35;;;;;;;96.75;28.48;;;;;;;-0.61;83.72;95538.22;5049663;28;20041;-71
2021/01/06 06:31:17;;;;;;;107.47;28.95;;;;;;;-0.62;83.52;95531.28;5049964;28;20053;-72
2021/01/06 06:33:43;;;;;;;95.63;28.58;;;;;;;-0.68;83.53;95532.31;5050296;28;20045;-71
2021/01/06 06:36:12;;;;;;;85.75;25.60;;;;;;;-0.66;83.47;95539.00;5049202;28;20045;-71
2021/01/06 06:38:42;;;;;;;87.50;28.50;;;;;;;-0.69;83.63;95544.06;5050585;28;20051;-71
2021/01/06 06:41:09;;;;;;;85.78;26.63;;;;;;;-0.61;83.77;95544.38;5048978;28;20049;-71
2021/01/06 06:43:42;;;;;;;93.47;27.38;;;;;;;-0.53;83.45;95545.69;5050413;28;20045;-71
2021/01/06 06:46:17;;;;;;;85.95;27.08;;;;;;;-0.55;83.40;95542.50;5049127;28;20049;-71
2021/01/06 06:48:59;;;;;;;90.10;26.58;;;;;;;-0.48;83.17;95545.69;5050212;28;20459;-71
2021/01/06 06:51:31;;;;;;;83.25;27.17;;;;;;;-0.48;82.93;95542.22;5049440;28;20054;-71
2021/01/06 06:54:04;;;;;;;86.38;27.15;;;;;;;-0.65;82.95;95553.97;5049377;28;20049;-71
2021/01/06 06:56:39;;;;;;;89.55;26.85;;;;;;;-0.66;83.29;95552.38;5050272;28;20037;-72
2021/01/06 06:59:09;;;;;;;86.35;26.23;;;;;;;-0.73;83.12;95553.69;5049589;28;20668;-71
2021/01/06 07:01:39;;;;;;;84.50;26.23;;;;;;;-0.70;83.38;95556.66;5050326;28;20056;-71
2021/01/06 07:04:13;;;;;;;96.63;26.77;;;;;;;-0.89;84.01;95556.38;5048915;28;20515;-71
2021/01/06 07:06:40;;;;;;;94.05;27.13;;;;;;;-1.00;84.56;95562.75;5049830;28;20099;-71
2021/01/06 07:09:17;;;;;;;91.78;27.13;;;;;;;-0.90;84.57;95573.44;5049332;28;20110;-72
2021/01/06 07:11:46;;;;;;;93.13;27.75;;;;;;;-0.84;84.36;95563.56;5048845;28;20047;-71
2021/01/06 07:14:20;;;;;;;85.63;26.85;;;;;;;-0.80;84.28;95567.31;5049750;28;20056;-71
2021/01/06 07:16:58;;;;;;;86.50;26.77;;;;;;;-0.91;84.11;95569.19;5049282;28;20557;-72
2021/01/06 07:19:27;;;;;;;84.72;26.05;;;;;;;-0.99;84.67;95571.56;5049846;28;20045;-71
2021/01/06 07:21:58;;;;;;;92.20;26.67;;;;;;;-0.97;84.64;95575.59;5049304;28;20508;-71
2021/01/06 07:24:26;;;;;;;78.93;24.42;;;;;;;-0.88;84.51;95576.69;5051072;28;20045;-71
2021/01/06 07:26:55;;;;;;;80.97;26.27;;;;;;;-0.87;84.19;95575.59;5053415;28;20095;-71
2021/01/06 07:29:24;;;;;;;76.43;23.33;;;;;;;-1.00;84.59;95580.66;5052380;28;20052;-72
2021/01/06 07:31:59;;;;;;;71.90;24.45;;;;;;;-0.94;84.30;95584.94;5053731;28;20045;-72
2021/01/06 07:34:37;;;;;;;82.95;26.23;;;;;;;-1.02;84.34;95585.47;5052132;28;20072;-71
2021/01/06 07:37:05;;;;;;;85.43;27.23;;;;;;;-1.09;84.73;95585.72;5052922;28;20048;-72
2021/01/06 07:39:36;;;;;;;81.40;25.35;;;;;;;-1.15;84.96;95584.06;5052480;28;20520;-71
2021/01/06 07:42:04;;;;;;;88.28;26.63;;;;;;;-1.08;85.11;95592.66;5052863;28;20114;-71
2021/01/06 07:44:35;;;;;;;80.07;24.30;;;;;;;-0.96;84.79;95587.06;5052996;28;20420;-71
2021/01/06 07:47:12;;;;;;;66.35;21.92;;;;;;;-0.92;84.36;95588.97;5052477;28;20075;-71
2021/01/06 07:49:51;;;;;;;78.97;26.13;;;;;;;-1.03;84.43;95595.34;5053534;28;20099;-71
2021/01/06 07:52:49;;;;;;;73.60;22.92;;;;;;;-1.04;84.57;95593.75;5051904;28;20049;-71
2021/01/06 07:55:29;;;;;;;80.88;25.70;;;;;;;-1.05;85.00;95602.81;5052594;28;20045;-71
2021/01/06 07:58:01;;;;;;;70.93;24.13;;;;;;;-0.94;84.60;95595.63;5052780;28;20500;-71
2021/01/06 08:00:31;;;;;;;80.43;25.97;;;;;;;-1.17;84.94;95599.56;5052166;28;20052;-72
2021/01/06 08:03:06;;;;;;;75.63;23.73;;;;;;;-1.11;85.24;95598.53;5053069;28;20688;-71
2021/01/06 08:05:34;;;;;;;79.28;25.85;;;;;;;-1.13;85.19;95595.31;5051892;28;20554;-71
2021/01/06 08:08:07;;;;;;;86.00;26.65;;;;;;;-1.20;85.39;95600.91;5053084;28;20049;-71
2021/01/06 08:10:35;;;;;;;74.88;25.13;;;;;;;-1.21;85.63;95595.81;5051932;28;20045;-71
2021/01/06 08:13:16;;;;;;;79.38;24.42;;;;;;;-1.16;85.58;95601.16;5052199;28;20102;-72
2021/01/06 08:15:43;;;;;;;80.78;24.85;;;;;;;-1.20;85.60;95600.09;5052496;28;20048;-71
2021/01/06 08:18:19;;;;;;;71.85;23.10;;;;;;;-1.15;85.56;95608.94;5051875;28;20069;-72
2021/01/06 08:20:55;;;;;;;78.70;23.77;;;;;;;-1.06;85.26;95606.56;5052750;28;20069;-71
2021/01/06 08:23:26;;;;;;;74.95;24.52;;;;;;;-1.19;85.43;95601.72;5051262;28;20052;-71
2021/01/06 08:25:57;;;;;;;65.50;22.40;;;;;;;-1.14;85.54;95604.41;5052608;28;20504;-71
2021/01/06 08:28:28;;;;;;;82.63;24.88;;;;;;;-1.22;85.60;95611.03;5051278;28;20043;-71
2021/01/06 08:31:06;;;;;;;72.82;24.67;;;;;;;-1.24;85.92;95604.38;5052318;28;20080;-71
2021/01/06 08:33:32;;;;;;;81.82;27.20;;;;;;;-1.29;85.82;95601.69;5052194;28;20072;-71
2021/01/06 08:36:10;;;;;;;73.15;23.95;;;;;;;-1.23;86.20;95617.44;5051772;28;20037;-71
2021/01/06 08:38:37;;;;;;;70.38;23.67;;;;;;;-1.04;85.85;95609.78;5052367;28;20103;-71
2021/01/06 08:41:17;;;;;;;74.03;24.95;;;;;;;-1.17;85.90;95610.25;5050928;28;20041;-72
2021/01/06 08:43:44;;;;;;;81.97;24.95;;;;;;;-1.19;85.85;95610.53;5051294;28;20045;-72
2021/01/06 08:46:20;;;;;;;76.28;23.27;;;;;;;-1.15;85.68;95608.13;5050899;28;20488;-71
2021/01/06 08:48:46;;;;;;;74.68;24.65;;;;;;;-1.11;85.71;95614.56;5052016;28;20514;-72
2021/01/06 08:51:15;;;;;;;70.07;23.42;;;;;;;-1.08;85.28;95620.19;5051134;28;20049;-72
2021/01/06 08:53:44;;;;;;;64.53;21.17;;;;;;;-1.01;85.24;95617.25;5051389;28;20053;-72
2021/01/06 08:56:18;;;;;;;72.38;22.80;;;;;;;-1.05;85.14;95613.50;5051560;28;20102;-72
2021/01/06 08:58:50;;;;;;;69.28;23.30;;;;;;;-1.08;85.19;95620.19;5050978;28;20052;-72
2021/01/06 09:01:26;;;;;;;67.28;23.00;;;;;;;-1.05;84.95;95618.84;5051592;28;20056;-71
2021/01/06 09:04:01;;;;;;;69.05;22.25;;;;;;;-0.95;84.78;95624.22;5050855;28;20056;-74
2021/01/06 09:06:27;;;;;;;66.70;23.50;;;;;;;-1.03;84.79;95621.28;5061896;28;20037;-70
2021/01/06 09:08:55;;;;;;;66.25;21.95;;;;;;;-1.04;84.86;95625.81;5065707;28;20060;-71
2021/01/06 09:11:25;;;;;;;71.78;23.77;;;;;;;-0.88;84.63;95632.81;5066992;28;20055;-71
2021/01/06 09:13:58;;;;;;;65.72;21.52;;;;;;;-0.84;84.24;95633.88;5068455;28;20056;-70
2021/01/06 09:16:29;;;;;;;77.72;23.27;;;;;;;-0.87;84.31;95639.75;5066648;28;20051;-71
2021/01/06 09:19:01;;;;;;;72.68;22.30;;;;;;;-0.71;83.84;95639.81;5058068;28;20063;-71
2021/01/06 09:21:30;;;;;;;68.30;21.85;;;;;;;-0.77;83.76;95641.66;5035582;28;20049;-71
2021/01/06 09:24:00;;;;;;;67.72;22.98;;;;;;;-0.81;84.02;95641.38;5028117;28;20065;-71
2021/01/06 09:26:27;;;;;;;69.78;23.27;;;;;;;-0.86;84.01;95649.38;5026858;28;20107;-70
2021/01/06 09:29:04;;;;;;;72.82;23.02;;;;;;;-0.75;84.18;95649.41;5027577;28;20050;-70
2021/01/06 09:31:35;;;;;;;64.57;21.83;;;;;;;-0.78;83.78;95645.41;5047557;28;20044;-71
2021/01/06 09:34:01;;;;;;;65.18;21.27;;;;;;;-0.80;84.05;95650.19;5047307;28;20041;-71
2021/01/06 09:36:28;;;;;;;67.30;22.23;;;;;;;-0.74;83.91;95645.66;5047767;28;20052;-71
2021/01/06 09:38:55;;;;;;;70.53;22.52;;;;;;;-0.71;83.84;95655.84;5060508;28;20050;-71
2021/01/06 09:41:26;;;;;;;65.65;23.00;;;;;;;-0.70;83.80;95654.78;5067547;28;20044;-71
2021/01/06 09:43:56;;;;;;;69.05;24.60;;;;;;;-0.77;84.00;95652.34;5067080;28;20044;-70
2021/01/06 09:46:31;;;;;;;72.88;23.63;;;;;;;-0.81;83.96;95657.41;5065115;28;20060;-71
2021/01/06 09:49:01;;;;;;;71.68;23.23;;;;;;;-0.87;84.10;95653.13;5056842;28;20060;-71
2021/01/06 09:51:27;;;;;;;67.50;21.73;;;;;;;-0.80;84.66;95661.69;5047037;28;20044;-70
2021/01/06 09:53:59;;;;;;;64.15;22.33;;;;;;;-0.76;84.32;95658.50;5047668;28;20095;-71
2021/01/06 09:56:29;;;;;;;64.85;21.60;;;;;;;-0.61;83.96;95661.22;5045293;28;20118;-71
2021/01/06 09:58:57;;;;;;;63.92;21.40;;;;;;;-0.61;83.92;95661.22;5047917;28;20045;-71
2021/01/06 10:01:33;;;;;;;63.05;22.38;;;;;;;-0.58;83.73;95661.47;5046014;28;20048;-71
2021/01/06 10:04:03;;;;;;;69.00;21.77;;;;;;;-0.60;83.97;95657.47;5047525;28;20045;-71
2021/01/06 10:06:41;;;;;;;61.53;20.23;;;;;;;-0.46;83.35;95663.91;5054727;28;20051;-71
2021/01/06 10:09:16;;;;;;;67.50;22.48;;;;;;;-0.54;83.33;95659.06;5066222;28;20049;-71
2021/01/06 10:12:00;;;;;;;63.70;22.42;;;;;;;-0.57;83.53;95651.59;5063295;28;20048;-70
2021/01/06 10:14:37;;;;;;;67.78;23.98;;;;;;;-0.56;83.95;95643.31;5065560;28;20068;-70
2021/01/06 10:17:09;;;;;;;61.55;21.95;;;;;;;-0.57;83.86;95657.75;5066762;28;20504;-71
2021/01/06 10:19:41;;;;;;;67.40;21.90;;;;;;;-0.45;83.68;95654.81;5050948;28;20450;-70
2021/01/06 10:22:30;;;;;;;59.90;20.65;;;;;;;-0.60;83.69;95657.47;5045909;28;20530;-72
2021/01/06 10:25:23;;;;;;;66.40;21.42;;;;;;;-0.44;83.39;95651.06;5046801;28;20556;-70
2021/01/06 10:28:01;;;;;;;65.68;22.00;;;;;;;-0.45;83.52;95646.81;5039368;28;20069;-71
2021/01/06 10:30:32;;;;;;;57.92;22.23;;;;;;;-0.47;83.42;95650.78;5046804;28;20562;-71
2021/01/06 10:33:16;;;;;;;60.10;21.25;;;;;;;-0.40;83.46;95641.47;5046649;28;20052;-71
2021/01/06 10:36:05;;;;;;;58.67;20.67;;;;;;;-0.46;83.78;95642.53;5042624;28;20717;-71
2021/01/06 10:38:37;;;;;;;59.30;20.23;;;;;;;-0.51;83.89;95642.50;5046751;28;20045;-71
2021/01/06 10:41:27;;;;;;;68.40;21.27;;;;;;;-0.53;84.24;95645.44;5053494;28;20157;-72
2021/01/06 10:43:54;;;;;;;60.72;21.27;;;;;;;-0.51;84.14;95637.16;5066894;28;20075;-70
2021/01/06 10:46:49;;;;;;;60.30;21.88;;;;;;;-0.46;84.14;95642.53;5063891;28;20053;-70
2021/01/06 10:49:52;;;;;;;60.35;20.92;;;;;;;-0.35;83.91;95644.13;5025946;28;20061;-71
2021/01/06 10:52:21;;;;;;;59.47;19.50;;;;;;;-0.36;84.01;95641.75;5023729;28;20509;-71
2021/01/06 10:54:57;;;;;;;62.00;21.75;;;;;;;-0.43;84.31;95647.31;5025287;28;20092;-71
2021/01/06 10:57:29;;;;;;;68.05;21.60;;;;;;;-0.42;84.28;95646.25;5025138;28;20046;-71
2021/01/06 11:00:20;;;;;;;64.10;20.95;;;;;;;-0.45;84.25;95636.09;5028974;28;20417;-71
2021/01/06 11:03:16;;;;;;;63.90;21.75;;;;;;;-0.52;84.54;95643.59;5045512;28;20064;-71
2021/01/06 11:05:59;;;;;;;59.63;21.40;;;;;;;-0.42;84.59;95638.22;5046142;28;20470;-71
2021/01/06 11:08:50;;;;;;;60.73;21.90;;;;;;;-0.29;84.34;95637.72;5047490;28;20045;-71
2021/01/06 11:11:42;;;;;;;57.58;21.33;;;;;;;-0.37;84.19;95635.56;5048160;28;20835;-71
2021/01/06 11:14:29;;;;;;;53.67;21.23;;;;;;;-0.31;84.30;95636.41;5049333;28;20063;-71
2021/01/06 11:16:57;;;;;;;48.45;18.42;;;;;;;-0.21;84.06;95635.56;5047233;28;20049;-71
2021/01/06 11:19:44;;;;;;;57.35;18.88;;;;;;;-0.24;83.95;95633.44;5049813;28;20106;-71
2021/01/06 11:22:32;;;;;;;58.00;20.63;;;;;;;-0.16;83.98;95635.56;5040027;28;20509;-71
2021/01/06 11:25:01;;;;;;;59.97;18.48;;;;;;;-0.04;83.66;95628.09;5049572;28;20698;-71
2021/01/06 11:27:39;;;;;;;60.42;19.42;;;;;;;0.06;83.13;95627.28;5048705;28;20057;-71
2021/01/06 11:30:25;;;;;;;53.05;20.58;;;;;;;-0.05;82.86;95629.19;5052401;28;20127;-71
2021/01/06 11:33:11;;;;;;;51.28;20.38;;;;;;;-0.10;83.03;95629.97;5070073;28;20576;-69
2021/01/06 11:35:45;;;;;;;52.38;19.77;;;;;;;-0.13;83.26;95635.06;5069729;28;20499;-70
2021/01/06 11:38:47;;;;;;;54.40;19.27;;;;;;;-0.13;83.02;95632.38;5069332;28;20174;-71
2021/01/06 11:41:16;;;;;;;54.95;20.95;;;;;;;-0.10;82.87;95631.84;5061013;28;20044;-70
2021/01/06 11:43:52;;;;;;;53.00;20.20;;;;;;;-0.07;82.77;95623.28;5069296;28;20056;-70